createdAt,value
2019-05-07T00:00:32.986Z,0
2019-05-07T00:01:34.161Z,0
2019-05-07T00:02:33.835Z,0
2019-05-07T00:03:32.980Z,0
2019-05-07T00:04:33.393Z,0
2019-05-07T00:05:33.560Z,0
2019-05-07T00:06:34.281Z,0
2019-05-07T00:07:34.690Z,0
2019-05-07T00:08:37.861Z,0
2019-05-07T00:09:38.061Z,0
2019-05-07T00:10:38.694Z,0
2019-05-07T00:11:38.858Z,0
2019-05-07T00:12:37.967Z,0
2019-05-07T00:13:39.153Z,0
2019-05-07T00:14:42.629Z,0
2019-05-07T00:17:42.969Z,0
2019-05-07T00:18:43.353Z,0
2019-05-07T00:19:43.467Z,0
2019-05-07T00:20:43.874Z,0
2019-05-07T00:21:43.980Z,0
2019-05-07T00:22:44.090Z,0
2019-05-07T00:23:44.753Z,0
2019-05-07T00:24:45.163Z,0
2019-05-07T00:25:48.113Z,0
2019-05-07T00:26:48.155Z,0
2019-05-07T00:27:48.069Z,0
2019-05-07T00:28:48.845Z,0
2019-05-07T00:29:48.676Z,0
2019-05-07T00:30:48.220Z,0
2019-05-07T00:31:47.649Z,0
2019-05-07T00:32:47.902Z,0
2019-05-07T00:33:49.171Z,0
2019-05-07T00:34:48.279Z,0
2019-05-07T00:35:49.280Z,0
2019-05-07T00:36:49.665Z,0
2019-05-07T00:37:52.323Z,0
2019-05-07T00:38:53.350Z,0
2019-05-07T00:39:53.082Z,0
2019-05-07T00:40:53.255Z,0
2019-05-07T00:41:53.749Z,0
2019-05-07T00:42:54.154Z,0
2019-05-07T00:43:54.275Z,0
2019-05-07T00:44:54.677Z,0
2019-05-07T00:45:56.785Z,0
2019-05-07T00:46:57.708Z,0
2019-05-07T00:47:57.831Z,0
2019-05-07T00:48:58.222Z,0
2019-05-07T00:49:57.758Z,0
2019-05-07T00:50:58.348Z,0
2019-05-07T00:51:58.459Z,0
2019-05-07T00:52:59.173Z,0
2019-05-07T00:53:59.277Z,0
2019-05-07T00:54:59.688Z,0
2019-05-07T00:56:01.799Z,0
2019-05-07T00:57:03.153Z,0
2019-05-07T00:58:03.589Z,0
2019-05-07T00:59:03.696Z,0
2019-05-07T01:00:03.548Z,0
2019-05-07T01:01:04.183Z,0
2019-05-07T01:02:04.296Z,0
2019-05-07T01:03:04.708Z,0
2019-05-07T01:04:04.825Z,0
2019-05-07T01:05:08.376Z,0
2019-05-07T01:06:07.537Z,0
2019-05-07T01:07:08.211Z,0
2019-05-07T01:08:08.078Z,0
2019-05-07T01:09:08.944Z,0
2019-05-07T01:10:08.332Z,0
2019-05-07T01:11:08.733Z,0
2019-05-07T01:12:09.122Z,0
2019-05-07T01:13:11.992Z,0
2019-05-07T01:14:12.144Z,0
2019-05-07T01:15:12.579Z,0
2019-05-07T01:16:13.443Z,0
2019-05-07T01:17:13.090Z,0
2019-05-07T01:18:13.852Z,0
2019-05-07T01:19:13.792Z,0
2019-05-07T01:20:14.198Z,0
2019-05-07T01:21:14.321Z,0
2019-05-07T01:22:14.429Z,0
2019-05-07T01:23:15.097Z,0
2019-05-07T01:24:18.075Z,0
2019-05-07T01:25:18.647Z,0
2019-05-07T01:26:18.234Z,0
2019-05-07T01:27:18.369Z,0
2019-05-07T01:28:19.078Z,0
2019-05-07T01:29:19.020Z,0
2019-05-07T01:30:19.423Z,0
2019-05-07T01:31:19.536Z,0
2019-05-07T01:32:19.647Z,0
2019-05-07T01:33:20.053Z,0
2019-05-07T01:34:23.123Z,0
2019-05-07T01:35:22.387Z,0
2019-05-07T01:36:23.849Z,0
2019-05-07T01:37:23.374Z,0
2019-05-07T01:38:23.069Z,0
2019-05-07T01:39:23.780Z,0
2019-05-07T01:40:24.164Z,0
2019-05-07T01:41:24.273Z,0
2019-05-07T01:42:24.680Z,0
2019-05-07T01:43:25.081Z,0
2019-05-07T01:44:27.500Z,0
2019-05-07T01:45:42.989Z,0
2019-05-07T01:46:32.305Z,0
2019-05-07T01:47:29.400Z,0
2019-05-07T01:48:28.503Z,0
2019-05-07T01:49:29.555Z,0
2019-05-07T01:50:28.666Z,0
2019-05-07T01:51:29.352Z,0
2019-05-07T01:52:29.468Z,0
2019-05-07T01:53:29.569Z,0
2019-05-07T01:54:30.270Z,0
2019-05-07T01:55:31.798Z,0
2019-05-07T01:56:30.388Z,0
2019-05-07T01:57:32.557Z,0
2019-05-07T01:58:33.317Z,0
2019-05-07T01:59:33.029Z,0
2019-05-07T02:00:33.439Z,0
2019-05-07T02:01:35.743Z,0
2019-05-07T02:02:33.628Z,0
2019-05-07T02:03:33.760Z,0
2019-05-07T02:04:33.103Z,0
2019-05-07T02:05:33.850Z,0
2019-05-07T02:06:34.569Z,0
2019-05-07T02:07:35.253Z,0
2019-05-07T02:08:38.042Z,0
2019-05-07T02:09:39.238Z,0
2019-05-07T02:10:37.641Z,0
2019-05-07T02:11:38.248Z,0
2019-05-07T02:12:38.368Z,0
2019-05-07T02:13:41.842Z,0
2019-05-07T02:14:39.143Z,0
2019-05-07T02:15:39.825Z,0
2019-05-07T02:16:41.851Z,0
2019-05-07T02:17:43.146Z,0
2019-05-07T02:18:43.588Z,0
2019-05-07T02:19:43.595Z,0
2019-05-07T02:20:43.015Z,0
2019-05-07T02:21:43.977Z,0
2019-05-07T02:22:44.376Z,0
2019-05-07T02:23:44.779Z,0
2019-05-07T02:24:45.800Z,0
2019-05-07T02:25:47.807Z,0
2019-05-07T02:26:48.509Z,0
2019-05-07T02:27:47.588Z,0
2019-05-07T02:28:48.143Z,0
2019-05-07T02:29:48.887Z,0
2019-05-07T02:30:53.284Z,0
2019-05-07T02:31:52.900Z,0
2019-05-07T02:32:49.492Z,0
2019-05-07T02:33:53.758Z,0
2019-05-07T02:34:50.404Z,0
2019-05-07T02:35:53.400Z,0
2019-05-07T02:36:54.315Z,0
2019-05-07T02:38:03.080Z,0
2019-05-07T02:38:58.195Z,0
2019-05-07T02:39:58.408Z,0
2019-05-07T02:40:54.568Z,0
2019-05-07T02:41:55.363Z,0
2019-05-07T02:42:55.098Z,0
2019-05-07T02:43:59.560Z,0
2019-05-07T02:44:58.459Z,0
2019-05-07T02:46:16.896Z,0
2019-05-07T02:46:58.724Z,0
2019-05-07T02:47:58.792Z,0
2019-05-07T02:49:02.842Z,0
2019-05-07T02:50:02.781Z,0
2019-05-07T02:51:05.011Z,0
2019-05-07T02:52:04.427Z,0
2019-05-07T02:53:04.499Z,0
2019-05-07T02:54:04.999Z,0
2019-05-07T02:55:09.115Z,0
2019-05-07T02:56:03.820Z,0
2019-05-07T02:57:04.244Z,0
2019-05-07T02:58:09.181Z,0
2019-05-07T02:59:09.476Z,0
2019-05-07T03:00:14.016Z,0
2019-05-07T03:01:13.716Z,0
2019-05-07T03:02:09.428Z,0
2019-05-07T03:03:13.482Z,0
2019-05-07T03:04:12.860Z,0
2019-05-07T03:05:13.620Z,0
2019-05-07T03:06:13.835Z,0
2019-05-07T03:07:18.298Z,0
2019-05-07T03:08:14.323Z,0
2019-05-07T03:09:14.789Z,0
2019-05-07T03:10:14.424Z,0
2019-05-07T03:11:14.497Z,0
2019-05-07T03:12:18.746Z,0
2019-05-07T03:13:18.875Z,0
2019-05-07T03:14:19.125Z,0
2019-05-07T03:15:19.306Z,0
2019-05-07T03:16:35.111Z,0
2019-05-07T03:17:19.131Z,0
2019-05-07T03:18:24.379Z,0
2019-05-07T03:19:19.350Z,0
2019-05-07T03:20:22.776Z,4
2019-05-07T03:21:19.627Z,4
2019-05-07T03:22:22.851Z,0
2019-05-07T03:23:19.561Z,0
2019-05-07T03:24:22.461Z,4
2019-05-07T03:25:23.067Z,0
2019-05-07T03:26:24.751Z,4
2019-05-07T03:27:28.897Z,4
2019-05-07T03:28:24.616Z,8
2019-05-07T03:29:24.302Z,4
2019-05-07T03:30:35.859Z,8
2019-05-07T03:31:36.007Z,8
2019-05-07T03:32:37.697Z,8
2019-05-07T03:33:36.507Z,8
2019-05-07T03:34:36.458Z,8
2019-05-07T03:35:36.967Z,12
2019-05-07T03:36:35.376Z,16
2019-05-07T03:37:33.002Z,16
2019-05-07T03:38:28.448Z,20
2019-05-07T03:39:30.163Z,24
2019-05-07T03:40:32.652Z,24
2019-05-07T03:41:33.609Z,28
2019-05-07T03:42:33.162Z,32
2019-05-07T03:43:34.146Z,36
2019-05-07T03:44:34.916Z,44
2019-05-07T03:45:34.381Z,48
2019-05-07T03:46:51.927Z,56
2019-05-07T03:47:38.614Z,60
2019-05-07T03:48:34.741Z,64
2019-05-07T03:49:34.700Z,72
2019-05-07T03:50:35.454Z,80
2019-05-07T03:51:38.615Z,88
2019-05-07T03:52:39.001Z,96
2019-05-07T03:53:43.157Z,104
2019-05-07T03:54:39.668Z,116
2019-05-07T03:55:39.112Z,124
2019-05-07T03:56:39.566Z,136
2019-05-07T03:57:39.298Z,148
2019-05-07T03:58:42.849Z,160
2019-05-07T03:59:42.907Z,172
2019-05-07T04:00:44.384Z,180
2019-05-07T04:01:44.412Z,196
2019-05-07T04:02:44.495Z,208
2019-05-07T04:03:45.275Z,220
2019-05-07T04:04:44.279Z,232
2019-05-07T04:05:48.466Z,252
2019-05-07T04:06:48.590Z,264
2019-05-07T04:07:49.181Z,280
2019-05-07T04:08:49.184Z,296
2019-05-07T04:09:49.668Z,308
2019-05-07T04:10:53.444Z,328
2019-05-07T04:11:49.142Z,344
2019-05-07T04:12:53.110Z,360
2019-05-07T04:13:53.233Z,376
2019-05-07T04:14:53.309Z,392
2019-05-07T04:15:54.791Z,412
2019-05-07T04:17:04.693Z,428
2019-05-07T04:17:54.019Z,444
2019-05-07T04:18:58.213Z,464
2019-05-07T04:19:55.143Z,480
2019-05-07T04:20:55.220Z,496
2019-05-07T04:21:58.412Z,512
2019-05-07T04:22:54.945Z,532
2019-05-07T04:23:55.649Z,548
2019-05-07T04:24:58.975Z,568
2019-05-07T04:25:58.853Z,584
2019-05-07T04:26:59.092Z,604
2019-05-07T04:27:58.537Z,620
2019-05-07T04:29:00.323Z,636
2019-05-07T04:30:03.396Z,652
2019-05-07T04:31:04.406Z,672
2019-05-07T04:32:04.914Z,688
2019-05-07T04:33:03.986Z,704
2019-05-07T04:34:04.606Z,724
2019-05-07T04:35:04.716Z,748
2019-05-07T04:36:04.474Z,772
2019-05-07T04:37:04.892Z,792
2019-05-07T04:38:13.632Z,808
2019-05-07T04:39:08.875Z,824
2019-05-07T04:40:09.084Z,836
2019-05-07T04:41:09.622Z,852
2019-05-07T04:42:09.345Z,872
2019-05-07T04:43:09.349Z,892
2019-05-07T04:44:09.760Z,912
2019-05-07T04:45:13.367Z,932
2019-05-07T04:46:14.678Z,956
2019-05-07T04:47:34.221Z,980
2019-05-07T04:48:14.290Z,1008
2019-05-07T04:49:15.037Z,1032
2019-05-07T04:50:32.799Z,1060
2019-05-07T04:51:29.157Z,1096
2019-05-07T04:52:29.839Z,1124
2019-05-07T04:53:32.752Z,1160
2019-05-07T04:54:34.216Z,1200
2019-05-07T04:55:33.953Z,1244
2019-05-07T04:56:34.930Z,1276
2019-05-07T04:57:34.666Z,1312
2019-05-07T04:58:39.730Z,1348
2019-05-07T04:59:38.500Z,1384
2019-05-07T05:00:38.835Z,1412
2019-05-07T05:01:38.437Z,1448
2019-05-07T05:02:38.607Z,1480
2019-05-07T05:03:44.743Z,1512
2019-05-07T05:04:44.638Z,1540
2019-05-07T05:05:39.340Z,1580
2019-05-07T05:06:42.325Z,1612
2019-05-07T05:07:42.848Z,1648
2019-05-07T05:08:43.853Z,1680
2019-05-07T05:09:44.046Z,1712
2019-05-07T05:10:44.835Z,1744
2019-05-07T05:11:44.699Z,1772
2019-05-07T05:12:43.956Z,1800
2019-05-07T05:13:45.043Z,1836
2019-05-07T05:14:45.543Z,1864
2019-05-07T05:15:43.463Z,1892
2019-05-07T05:16:43.959Z,1928
2019-05-07T05:18:02.319Z,1840
2019-05-07T05:18:47.180Z,1956
2019-05-07T05:19:45.456Z,2020
2019-05-07T05:20:47.901Z,2052
2019-05-07T05:21:47.517Z,2084
2019-05-07T05:22:48.001Z,2112
2019-05-07T05:23:47.803Z,2148
2019-05-07T05:24:48.470Z,2180
2019-05-07T05:25:48.758Z,2212
2019-05-07T05:26:49.154Z,2244
2019-05-07T05:27:49.564Z,2276
2019-05-07T05:28:49.994Z,2304
2019-05-07T05:29:52.002Z,2336
2019-05-07T05:30:53.161Z,2368
2019-05-07T05:31:53.008Z,2296
2019-05-07T05:32:53.123Z,2428
2019-05-07T05:33:53.643Z,2460
2019-05-07T05:34:53.768Z,2492
2019-05-07T05:35:54.161Z,2524
2019-05-07T05:36:54.843Z,2556
2019-05-07T05:37:54.391Z,2584
2019-05-07T05:38:54.797Z,2596
2019-05-07T05:40:14.093Z,2648
2019-05-07T05:40:57.895Z,2672
2019-05-07T05:41:57.597Z,2708
2019-05-07T05:42:57.925Z,2740
2019-05-07T05:43:58.175Z,2772
2019-05-07T05:44:58.251Z,2800
2019-05-07T05:45:58.826Z,2824
2019-05-07T05:46:58.968Z,2868
2019-05-07T05:48:14.987Z,2916
2019-05-07T05:48:59.709Z,2944
2019-05-07T05:50:01.916Z,2980
2019-05-07T05:51:02.633Z,3008
2019-05-07T05:52:03.743Z,3048
2019-05-07T05:53:02.830Z,3088
2019-05-07T05:54:03.149Z,3128
2019-05-07T05:55:03.575Z,3172
2019-05-07T05:56:03.715Z,3212
2019-05-07T05:57:04.420Z,3212
2019-05-07T05:58:05.477Z,3304
2019-05-07T05:59:08.228Z,3352
2019-05-07T06:00:08.011Z,3396
2019-05-07T06:01:08.925Z,3440
2019-05-07T06:02:12.078Z,3464
2019-05-07T06:03:08.062Z,3504
2019-05-07T06:04:08.524Z,3544
2019-05-07T06:05:12.562Z,3580
2019-05-07T06:06:12.747Z,3616
2019-05-07T06:07:22.649Z,3640
2019-05-07T06:08:12.440Z,3680
2019-05-07T06:09:12.890Z,3708
2019-05-07T06:10:13.226Z,3776
2019-05-07T06:11:13.492Z,3800
2019-05-07T06:12:13.829Z,3804
2019-05-07T06:13:14.517Z,3840
2019-05-07T06:14:14.681Z,3900
2019-05-07T06:15:15.159Z,3948
2019-05-07T06:16:18.199Z,3980
2019-05-07T06:17:18.432Z,3988
2019-05-07T06:18:32.685Z,4008
2019-05-07T06:19:20.092Z,4092
2019-05-07T06:20:17.992Z,4152
2019-05-07T06:21:18.915Z,4188
2019-05-07T06:22:22.413Z,4124
2019-05-07T06:23:19.220Z,4160
2019-05-07T06:24:19.337Z,4304
2019-05-07T06:25:24.133Z,4320
2019-05-07T06:26:19.619Z,4200
2019-05-07T06:27:19.748Z,4224
2019-05-07T06:28:22.320Z,4356
2019-05-07T06:29:28.579Z,4392
2019-05-07T06:30:25.297Z,4428
2019-05-07T06:31:23.646Z,4472
2019-05-07T06:32:23.421Z,4516
2019-05-07T06:33:23.292Z,4240
2019-05-07T06:34:23.751Z,4616
2019-05-07T06:35:24.963Z,4648
2019-05-07T06:36:23.412Z,4704
2019-05-07T06:37:23.821Z,4724
2019-05-07T06:38:23.939Z,4792
2019-05-07T06:39:24.345Z,4840
2019-05-07T06:40:34.915Z,4892
2019-05-07T06:41:28.317Z,4988
2019-05-07T06:42:27.640Z,4964
2019-05-07T06:43:27.640Z,5036
2019-05-07T06:44:28.441Z,4808
2019-05-07T06:45:28.865Z,4892
2019-05-07T06:46:28.699Z,5048
2019-05-07T06:47:29.108Z,4940
2019-05-07T06:48:52.677Z,5020
2019-05-07T06:49:29.673Z,5044
2019-05-07T06:50:33.072Z,4876
2019-05-07T06:51:33.363Z,5340
2019-05-07T06:52:34.244Z,4716
2019-05-07T06:53:33.766Z,5276
2019-05-07T06:54:33.851Z,5296
2019-05-07T06:55:33.886Z,5324
2019-05-07T06:56:34.587Z,5408
2019-05-07T06:57:35.032Z,13860
2019-05-07T06:58:37.812Z,29312
2019-05-07T06:59:42.320Z,41408
2019-05-07T07:00:38.764Z,42336
2019-05-07T07:01:38.859Z,40576
2019-05-07T07:02:38.314Z,41376
2019-05-07T07:03:39.178Z,40864
2019-05-07T07:04:39.128Z,40896
2019-05-07T07:05:38.861Z,37216
2019-05-07T07:06:39.672Z,25792
2019-05-07T07:07:47.530Z,11848
2019-05-07T07:08:41.943Z,9400
2019-05-07T07:09:44.347Z,15584
2019-05-07T07:10:42.935Z,28064
2019-05-07T07:11:43.481Z,20032
2019-05-07T07:12:44.265Z,20128
2019-05-07T07:13:44.583Z,32192
2019-05-07T07:14:44.966Z,33472
2019-05-07T07:15:48.385Z,24128
2019-05-07T07:16:47.825Z,15584
2019-05-07T07:17:47.731Z,12652
2019-05-07T07:19:03.298Z,7512
2019-05-07T07:19:48.549Z,9948
2019-05-07T07:20:49.881Z,20800
2019-05-07T07:21:52.201Z,23808
2019-05-07T07:22:51.875Z,21888
2019-05-07T07:23:52.181Z,22784
2019-05-07T07:24:53.326Z,16000
2019-05-07T07:25:54.257Z,8768
2019-05-07T07:26:53.233Z,7584
2019-05-07T07:27:53.640Z,7812
2019-05-07T07:28:53.783Z,6704
2019-05-07T07:29:58.379Z,7424
2019-05-07T07:30:54.887Z,11764
2019-05-07T07:31:58.417Z,13204
2019-05-07T07:32:57.368Z,10072
2019-05-07T07:33:58.347Z,6968
2019-05-07T07:34:58.952Z,7904
2019-05-07T07:35:59.668Z,6996
2019-05-07T07:37:22.903Z,6828
2019-05-07T07:38:02.288Z,7016
2019-05-07T07:39:03.343Z,6920
2019-05-07T07:40:03.393Z,7284
2019-05-07T07:41:05.393Z,8728
2019-05-07T07:42:03.082Z,8968
2019-05-07T07:43:06.695Z,10796
2019-05-07T07:44:04.225Z,14176
2019-05-07T07:45:04.645Z,10272
2019-05-07T07:46:07.870Z,8444
2019-05-07T07:47:08.258Z,8180
2019-05-07T07:48:09.659Z,9092
2019-05-07T07:49:22.194Z,16416
2019-05-07T07:50:08.080Z,29888
2019-05-07T07:51:09.072Z,25344
2019-05-07T07:52:09.675Z,12972
2019-05-07T07:53:08.696Z,24160
2019-05-07T07:54:09.397Z,34944
2019-05-07T07:55:09.842Z,32704
2019-05-07T07:56:12.084Z,34816
2019-05-07T07:57:13.207Z,30656
2019-05-07T07:58:13.629Z,20704
2019-05-07T07:59:15.520Z,33760
2019-05-07T08:00:18.631Z,28608
2019-05-07T08:01:17.555Z,19488
2019-05-07T08:02:14.688Z,11856
2019-05-07T08:03:14.829Z,9956
2019-05-07T08:04:17.777Z,13824
2019-05-07T08:05:18.296Z,23200
2019-05-07T08:06:17.787Z,33600
2019-05-07T08:07:18.241Z,38304
2019-05-07T08:08:18.324Z,38048
2019-05-07T08:09:18.948Z,39968
2019-05-07T08:10:22.167Z,29568
2019-05-07T08:11:21.755Z,14944
2019-05-07T08:12:22.088Z,10408
2019-05-07T08:13:23.071Z,11888
2019-05-07T08:14:23.363Z,13888
2019-05-07T08:15:32.992Z,17024
2019-05-07T08:16:27.825Z,31424
2019-05-07T08:17:24.248Z,20000
2019-05-07T08:18:24.500Z,21824
2019-05-07T08:19:33.004Z,19872
2019-05-07T08:20:27.861Z,22976
2019-05-07T08:21:28.540Z,19776
2019-05-07T08:22:28.395Z,22240
2019-05-07T08:23:28.414Z,25472
2019-05-07T08:24:28.756Z,25696
2019-05-07T08:25:28.181Z,19776
2019-05-07T08:26:28.608Z,22176
2019-05-07T08:27:32.567Z,27264
2019-05-07T08:28:31.680Z,36928
2019-05-07T08:29:32.191Z,37600
2019-05-07T08:30:35.713Z,35072
2019-05-07T08:31:33.807Z,33856
2019-05-07T08:32:33.957Z,33728
2019-05-07T08:33:37.799Z,33184
2019-05-07T08:34:32.903Z,34720
2019-05-07T08:35:33.350Z,32768
2019-05-07T08:36:33.764Z,33568
2019-05-07T08:37:37.576Z,35104
2019-05-07T08:38:38.293Z,37312
2019-05-07T08:39:38.123Z,38240
2019-05-07T08:40:37.176Z,37824
2019-05-07T08:41:37.394Z,34400
2019-05-07T08:42:38.127Z,34176
2019-05-07T08:43:37.981Z,33984
2019-05-07T08:44:38.098Z,31904
2019-05-07T08:45:40.306Z,34208
2019-05-07T08:46:38.316Z,32800
2019-05-07T08:47:38.651Z,33120
2019-05-07T08:48:38.780Z,31904
2019-05-07T08:49:49.149Z,30656
2019-05-07T08:50:39.576Z,29856
2019-05-07T08:51:39.856Z,28704
2019-05-07T08:52:41.936Z,29632
2019-05-07T08:53:44.048Z,28640
2019-05-07T08:54:44.840Z,27712
2019-05-07T08:55:43.398Z,24736
2019-05-07T08:56:43.174Z,21568
2019-05-07T08:57:48.341Z,22432
2019-05-07T08:58:43.631Z,23264
2019-05-07T08:59:57.385Z,22880
2019-05-07T09:00:48.643Z,22304
2019-05-07T09:01:45.071Z,22560
2019-05-07T09:02:47.751Z,22848
2019-05-07T09:03:48.833Z,22080
2019-05-07T09:04:47.332Z,22464
2019-05-07T09:05:48.100Z,22080
2019-05-07T09:06:51.995Z,23552
2019-05-07T09:07:48.493Z,24928
2019-05-07T09:08:49.774Z,26240
2019-05-07T09:09:52.055Z,25920
2019-05-07T09:10:55.851Z,24384
2019-05-07T09:11:53.261Z,22080
2019-05-07T09:12:53.906Z,21184
2019-05-07T09:13:53.337Z,21472
2019-05-07T09:14:54.541Z,21120
2019-05-07T09:15:54.725Z,21472
2019-05-07T09:16:54.941Z,21312
2019-05-07T09:17:58.032Z,20384
2019-05-07T09:18:58.735Z,18400
2019-05-07T09:20:02.784Z,18752
2019-05-07T09:20:58.196Z,18944
2019-05-07T09:21:58.904Z,18176
2019-05-07T09:22:59.041Z,18688
2019-05-07T09:23:59.567Z,20256
2019-05-07T09:25:00.280Z,20064
2019-05-07T09:26:02.861Z,18144
2019-05-07T09:27:03.068Z,19232
2019-05-07T09:28:03.363Z,19040
2019-05-07T09:29:03.073Z,17984
2019-05-07T09:30:03.007Z,22944
2019-05-07T09:31:07.601Z,21856
2019-05-07T09:32:03.705Z,24128
2019-05-07T09:33:04.401Z,21952
2019-05-07T09:34:04.689Z,23200
2019-05-07T09:35:07.766Z,21760
2019-05-07T09:36:08.308Z,25184
2019-05-07T09:37:09.333Z,21888
2019-05-07T09:38:08.673Z,27904
2019-05-07T09:39:12.870Z,29184
2019-05-07T09:40:12.422Z,25856
2019-05-07T09:41:12.010Z,28128
2019-05-07T09:42:13.401Z,27488
2019-05-07T09:43:13.676Z,26016
2019-05-07T09:44:13.805Z,27872
2019-05-07T09:45:12.927Z,26400
2019-05-07T09:46:14.091Z,25728
2019-05-07T09:47:13.336Z,26784
2019-05-07T09:48:14.099Z,25600
2019-05-07T09:49:14.568Z,24896
2019-05-07T09:50:18.898Z,25792
2019-05-07T09:51:17.430Z,25920
2019-05-07T09:52:18.880Z,25088
2019-05-07T09:53:18.335Z,24768
2019-05-07T09:54:18.466Z,23488
2019-05-07T09:55:28.821Z,24064
2019-05-07T09:56:17.948Z,25184
2019-05-07T09:57:42.137Z,23136
2019-05-07T09:58:32.339Z,23488
2019-05-07T09:59:21.707Z,23584
2019-05-07T10:00:19.950Z,23072
2019-05-07T10:01:20.383Z,23264
2019-05-07T10:02:25.229Z,23904
2019-05-07T10:03:23.327Z,23744
2019-05-07T10:04:22.389Z,23808
2019-05-07T10:05:21.647Z,24544
2019-05-07T10:06:23.618Z,24960
2019-05-07T10:07:24.348Z,25664
2019-05-07T10:08:24.621Z,25344
2019-05-07T10:09:23.836Z,24800
2019-05-07T10:10:24.564Z,24160
2019-05-07T10:11:24.872Z,24224
2019-05-07T10:12:28.041Z,22560
2019-05-07T10:13:27.735Z,22944
2019-05-07T10:14:27.850Z,23616
2019-05-07T10:15:28.289Z,23968
2019-05-07T10:16:28.014Z,24672
2019-05-07T10:17:28.721Z,24640
2019-05-07T10:18:29.334Z,21504
2019-05-07T10:19:32.326Z,22112
2019-05-07T10:20:33.610Z,22944
2019-05-07T10:21:33.076Z,22944
2019-05-07T10:22:37.856Z,23168
2019-05-07T10:23:36.531Z,21920
2019-05-07T10:24:33.240Z,22944
2019-05-07T10:25:33.710Z,22528
2019-05-07T10:26:33.838Z,22400
2019-05-07T10:27:34.489Z,22432
2019-05-07T10:28:38.969Z,21824
2019-05-07T10:29:38.009Z,21408
2019-05-07T10:30:39.223Z,21504
2019-05-07T10:31:37.532Z,21664
2019-05-07T10:32:42.073Z,21184
2019-05-07T10:33:38.400Z,20320
2019-05-07T10:34:39.469Z,19648
2019-05-07T10:35:43.730Z,19328
2019-05-07T10:36:42.018Z,19776
2019-05-07T10:37:42.491Z,20032
2019-05-07T10:38:43.808Z,19584
2019-05-07T10:39:43.823Z,18944
2019-05-07T10:40:43.865Z,17824
2019-05-07T10:41:43.222Z,16672
2019-05-07T10:42:43.404Z,17184
2019-05-07T10:43:43.875Z,17984
2019-05-07T10:44:44.152Z,18368
2019-05-07T10:45:44.695Z,18016
2019-05-07T10:46:45.003Z,17344
2019-05-07T10:47:47.556Z,17120
2019-05-07T10:48:46.677Z,17248
2019-05-07T10:49:48.273Z,16576
2019-05-07T10:50:51.690Z,16160
2019-05-07T10:51:48.600Z,14080
2019-05-07T10:52:48.289Z,15776
2019-05-07T10:53:48.419Z,16096
2019-05-07T10:55:05.216Z,16128
2019-05-07T10:55:51.152Z,15840
2019-05-07T10:56:52.856Z,15040
2019-05-07T10:57:53.321Z,13216
2019-05-07T10:58:52.722Z,12128
2019-05-07T10:59:53.168Z,11540
2019-05-07T11:00:53.091Z,11276
2019-05-07T11:01:53.505Z,11116
2019-05-07T11:02:57.043Z,11156
2019-05-07T11:03:57.299Z,11344
2019-05-07T11:04:59.039Z,12064
2019-05-07T11:05:58.170Z,12320
2019-05-07T11:06:58.437Z,12736
2019-05-07T11:08:01.747Z,12704
2019-05-07T11:08:59.853Z,12736
2019-05-07T11:10:01.881Z,9964
2019-05-07T11:11:02.868Z,12028
2019-05-07T11:12:03.112Z,12480
2019-05-07T11:13:02.815Z,12672
2019-05-07T11:14:07.990Z,10392
2019-05-07T11:15:02.952Z,10440
2019-05-07T11:16:03.375Z,11620
2019-05-07T11:17:04.357Z,12352
2019-05-07T11:18:04.962Z,11404
2019-05-07T11:19:07.437Z,12544
2019-05-07T11:20:06.129Z,11856
2019-05-07T11:21:08.821Z,12416
2019-05-07T11:22:08.074Z,12192
2019-05-07T11:23:08.217Z,12160
2019-05-07T11:24:09.242Z,11788
2019-05-07T11:25:09.346Z,11664
2019-05-07T11:26:13.580Z,11592
2019-05-07T11:27:11.447Z,11552
2019-05-07T11:28:12.285Z,11044
2019-05-07T11:29:13.155Z,11484
2019-05-07T11:30:13.789Z,11576
2019-05-07T11:31:13.376Z,11536
2019-05-07T11:32:12.511Z,11528
2019-05-07T11:33:15.175Z,11136
2019-05-07T11:34:14.020Z,10556
2019-05-07T11:35:14.879Z,11464
2019-05-07T11:36:16.424Z,11112
2019-05-07T11:37:18.583Z,11080
2019-05-07T11:38:33.073Z,11332
2019-05-07T11:39:17.756Z,11336
2019-05-07T11:40:20.029Z,10564
2019-05-07T11:41:18.537Z,8704
2019-05-07T11:42:18.521Z,9464
2019-05-07T11:43:18.898Z,9152
2019-05-07T11:44:19.346Z,8860
2019-05-07T11:45:19.649Z,8600
2019-05-07T11:46:22.078Z,9072
2019-05-07T11:47:23.191Z,9492
2019-05-07T11:48:23.841Z,9276
2019-05-07T11:49:24.539Z,9148
2019-05-07T11:50:28.307Z,8872
2019-05-07T11:51:29.569Z,8760
2019-05-07T11:52:28.766Z,8368
2019-05-07T11:53:24.256Z,8536
2019-05-07T11:54:25.550Z,8544
2019-05-07T11:55:27.771Z,8920
2019-05-07T11:56:27.421Z,8896
2019-05-07T11:57:27.860Z,8612
2019-05-07T11:58:27.476Z,9228
2019-05-07T11:59:27.926Z,9448
2019-05-07T12:00:28.663Z,9944
2019-05-07T12:01:41.510Z,8800
2019-05-07T12:02:32.262Z,8624
2019-05-07T12:03:36.066Z,8536
2019-05-07T12:04:33.654Z,8900
2019-05-07T12:05:35.775Z,9100
2019-05-07T12:06:32.987Z,9808
2019-05-07T12:07:33.432Z,11172
2019-05-07T12:08:57.674Z,10348
2019-05-07T12:09:35.791Z,10048
2019-05-07T12:10:35.502Z,10780
2019-05-07T12:11:38.042Z,11800
2019-05-07T12:12:38.354Z,14688
2019-05-07T12:13:37.928Z,15584
2019-05-07T12:14:42.370Z,15040
2019-05-07T12:15:39.045Z,14368
2019-05-07T12:16:42.343Z,12240
2019-05-07T12:17:40.519Z,12428
2019-05-07T12:18:43.175Z,11556
2019-05-07T12:19:49.631Z,13024
2019-05-07T12:20:43.438Z,14880
2019-05-07T12:21:42.841Z,15232
2019-05-07T12:22:43.310Z,14304
2019-05-07T12:23:47.421Z,14528
2019-05-07T12:24:45.713Z,15168
2019-05-07T12:25:49.299Z,15104
2019-05-07T12:26:47.090Z,13312
2019-05-07T12:27:45.750Z,12504
2019-05-07T12:28:47.327Z,10940
2019-05-07T12:29:47.942Z,8904
2019-05-07T12:30:48.413Z,10708
2019-05-07T12:31:47.837Z,9324
2019-05-07T12:32:48.229Z,10700
2019-05-07T12:33:48.661Z,12060
2019-05-07T12:34:52.640Z,12080
2019-05-07T12:35:52.330Z,11620
2019-05-07T12:36:52.659Z,10764
2019-05-07T12:37:55.107Z,10384
2019-05-07T12:38:54.761Z,10180
2019-05-07T12:39:53.319Z,9848
2019-05-07T12:40:54.363Z,9704
2019-05-07T12:41:53.613Z,9376
2019-05-07T12:42:58.310Z,9428
2019-05-07T12:43:57.400Z,8952
2019-05-07T12:44:58.811Z,8392
2019-05-07T12:45:59.001Z,7348
2019-05-07T12:46:58.675Z,7108
2019-05-07T12:47:58.916Z,7136
2019-05-07T12:48:59.942Z,7196
2019-05-07T12:49:59.416Z,7244
2019-05-07T12:50:58.122Z,6324
2019-05-07T12:51:58.824Z,6024
2019-05-07T12:53:02.063Z,5984
2019-05-07T12:53:59.699Z,6032
2019-05-07T12:54:59.842Z,6136
2019-05-07T12:56:02.679Z,6304
2019-05-07T12:57:02.986Z,6176
2019-05-07T12:58:02.906Z,6260
2019-05-07T12:59:03.089Z,6252
2019-05-07T13:00:03.900Z,6212
2019-05-07T13:01:03.615Z,6260
2019-05-07T13:02:16.663Z,6316
2019-05-07T13:03:05.118Z,6388
2019-05-07T13:04:08.384Z,6520
2019-05-07T13:05:11.819Z,6732
2019-05-07T13:06:08.159Z,7268
2019-05-07T13:07:08.430Z,8796
2019-05-07T13:08:09.058Z,10156
2019-05-07T13:09:09.480Z,9516
2019-05-07T13:10:14.834Z,9444
2019-05-07T13:11:09.945Z,9796
2019-05-07T13:12:13.643Z,9404
2019-05-07T13:13:13.072Z,8616
2019-05-07T13:14:13.082Z,8732
2019-05-07T13:15:33.232Z,8792
2019-05-07T13:16:24.506Z,8764
2019-05-07T13:17:22.839Z,9440
2019-05-07T13:18:23.474Z,9264
2019-05-07T13:19:24.259Z,9124
2019-05-07T13:20:23.514Z,9656
2019-05-07T13:21:23.674Z,9936
2019-05-07T13:22:23.890Z,10296
2019-05-07T13:23:24.040Z,10952
2019-05-07T13:24:28.224Z,10908
2019-05-07T13:25:28.095Z,10216
2019-05-07T13:26:24.894Z,10396
2019-05-07T13:27:26.092Z,9584
2019-05-07T13:28:26.084Z,9716
2019-05-07T13:29:28.284Z,10408
2019-05-07T13:30:27.661Z,9952
2019-05-07T13:31:29.250Z,8148
2019-05-07T13:32:27.894Z,8936
2019-05-07T13:33:28.657Z,10316
2019-05-07T13:34:29.298Z,10808
2019-05-07T13:35:29.600Z,10232
2019-05-07T13:36:29.671Z,11348
2019-05-07T13:37:32.383Z,11052
2019-05-07T13:38:34.407Z,9468
2019-05-07T13:39:34.633Z,8088
2019-05-07T13:40:31.507Z,7936
2019-05-07T13:41:34.295Z,6672
2019-05-07T13:42:33.827Z,5972